Time;durP1;ratioP1;P1;durP2;ratioP2;P2;SDS_P1;SDS_P2;PMS_P1;PMS_P2;Temp;Humidity;BMP_temperature;BMP_pressure;BME280_temperature;BME280_humidity;BME280_pressure;Samples;Min_cycle;Max_cycle;Signal;HPM_P1;HPM_P2
2023/02/26 00:00:38;;;;;;;18.65;4.60;;;;;;;4.26;58.97;101067.38;4921253;29;20063;-70
2023/02/26 00:03:06;;;;;;;11.57;3.97;;;;;;;4.25;58.31;101066.56;4918995;29;20059;-68
2023/02/26 00:05:33;;;;;;;16.55;3.80;;;;;;;4.36;57.71;101078.34;4916553;29;20078;-69
2023/02/26 00:08:00;;;;;;;14.07;3.95;;;;;;;4.14;57.65;101077.66;4920574;29;20687;-69
2023/02/26 00:10:28;;;;;;;13.30;3.85;;;;;;;4.11;57.77;101094.56;4919875;29;20122;-67
2023/02/26 00:12:55;;;;;;;12.43;3.50;;;;;;;4.20;57.36;101093.78;4938811;29;20051;-69
2023/02/26 00:15:23;;;;;;;12.77;4.00;;;;;;;3.94;58.13;101091.97;4938578;29;20051;-69
2023/02/26 00:18:13;;;;;;;13.10;3.83;;;;;;;3.86;57.87;101099.78;4934043;29;20056;-69
2023/02/26 00:20:44;;;;;;;14.73;4.05;;;;;;;3.87;57.96;101099.53;4922165;29;20051;-69
2023/02/26 00:23:13;;;;;;;10.75;3.55;;;;;;;3.84;57.96;101107.41;4939388;29;20048;-69
2023/02/26 00:25:41;;;;;;;11.30;3.78;;;;;;;3.75;58.30;101107.06;4936552;29;20063;-70
2023/02/26 00:28:09;;;;;;;13.85;3.72;;;;;;;3.93;57.93;101122.19;4922413;29;20454;-69
2023/02/26 00:30:37;;;;;;;12.60;3.70;;;;;;;3.68;58.30;101120.06;4935734;29;20070;-68
2023/02/26 00:33:05;;;;;;;19.60;4.05;;;;;;;3.85;58.07;101111.78;4936920;29;20054;-68
2023/02/26 00:35:34;;;;;;;18.60;3.75;;;;;;;3.75;57.74;101114.44;4921361;29;20058;-69
2023/02/26 00:38:04;;;;;;;14.32;3.90;;;;;;;3.79;57.64;101119.09;4938419;29;20056;-69
2023/02/26 00:40:47;;;;;;;16.63;4.00;;;;;;;3.80;58.11;101128.91;4938336;29;20082;-69
2023/02/26 00:43:17;;;;;;;12.32;4.05;;;;;;;3.68;58.47;101125.53;4939222;29;20051;-68
2023/02/26 00:45:54;;;;;;;13.40;4.10;;;;;;;3.76;57.92;101135.97;4935511;29;20426;-69
2023/02/26 00:48:33;;;;;;;15.75;3.90;;;;;;;3.77;57.22;101129.44;4921008;29;20059;-69
2023/02/26 00:51:06;;;;;;;15.15;4.10;;;;;;;3.56;58.15;101124.84;4920497;29;20059;-69
2023/02/26 00:53:43;;;;;;;12.90;3.95;;;;;;;3.57;57.82;101129.25;4939450;29;20044;-69
2023/02/26 00:56:10;;;;;;;14.93;4.03;;;;;;;3.55;57.70;101131.41;4920367;29;20058;-71
2023/02/26 00:58:38;;;;;;;14.00;3.70;;;;;;;3.79;57.07;101129.16;4900265;29;20412;-70
2023/02/26 01:01:05;;;;;;;13.27;3.83;;;;;;;3.64;57.12;101121.69;4914337;29;20047;-69
2023/02/26 01:03:33;;;;;;;10.60;3.58;;;;;;;3.69;56.63;101131.81;4922571;29;20055;-70
2023/02/26 01:06:01;;;;;;;17.55;4.10;;;;;;;3.28;57.33;101128.66;4936337;29;20051;-70
2023/02/26 01:08:33;;;;;;;14.27;4.18;;;;;;;3.42;57.25;101120.91;4939372;29;20058;-70
2023/02/26 01:11:00;;;;;;;16.48;4.00;;;;;;;3.63;56.83;101133.66;4920691;29;20051;-69
2023/02/26 01:13:28;;;;;;;13.55;3.67;;;;;;;3.44;56.76;101135.91;4937733;29;20056;-69
2023/02/26 01:16:03;;;;;;;14.32;3.83;;;;;;;3.35;56.93;101144.78;4919804;29;20071;-69
2023/02/26 01:18:37;;;;;;;11.65;3.58;;;;;;;3.08;57.77;101162.97;4937686;29;20059;-69
2023/02/26 01:21:07;;;;;;;13.32;3.70;;;;;;;3.25;57.63;101134.63;4936424;29;20052;-70
2023/02/26 01:23:39;;;;;;;12.90;3.55;;;;;;;3.14;57.23;101137.47;4905586;29;20055;-68
2023/02/26 01:26:23;;;;;;;10.50;3.05;;;;;;;3.08;57.54;101131.16;4888810;29;20052;-69
2023/02/26 01:28:52;;;;;;;13.82;4.22;;;;;;;3.26;57.26;101133.53;4939163;29;20399;-69
2023/02/26 01:31:47;;;;;;;13.52;4.40;;;;;;;3.13;57.58;101138.56;4921223;29;20043;-69
2023/02/26 01:34:17;;;;;;;14.15;3.88;;;;;;;3.18;57.62;101133.16;4941280;29;20051;-68
2023/02/26 01:37:13;;;;;;;19.45;3.95;;;;;;;3.21;57.51;101136.19;4939496;29;20503;-69
2023/02/26 01:40:08;;;;;;;10.48;3.42;;;;;;;3.23;57.38;101134.03;4916761;29;20060;-69
2023/02/26 01:42:36;;;;;;;16.05;3.90;;;;;;;3.12;57.65;101143.16;4939798;29;20415;-69
2023/02/26 01:45:15;;;;;;;16.35;3.88;;;;;;;3.13;57.52;101133.09;4925189;29;20052;-69
2023/02/26 01:47:55;;;;;;;14.30;4.07;;;;;;;3.13;57.27;101144.81;4924005;29;20052;-69
2023/02/26 01:50:28;;;;;;;14.02;4.07;;;;;;;2.92;57.77;101142.09;4924703;29;20051;-68
2023/02/26 01:53:23;;;;;;;20.50;3.70;;;;;;;2.81;58.04;101141.13;4940632;29;20063;-69
2023/02/26 01:55:57;;;;;;;13.82;3.47;;;;;;;2.85;58.03;101146.91;4923723;29;20055;-68
2023/02/26 01:58:27;;;;;;;12.40;3.38;;;;;;;2.68;nan;101159.72;4906474;29;20056;-69
2023/02/26 02:00:55;;;;;;;;;;;;;;;2.82;58.09;101145.53;4926628;29;20047;-69
2023/02/26 02:03:23;;;;;;;13.73;4.18;;;;;;;2.90;57.67;101149.69;4941078;29;20301;-70
2023/02/26 02:06:03;;;;;;;12.85;4.25;;;;;;;2.93;57.65;101154.63;4940671;29;20395;-69
2023/02/26 02:08:34;;;;;;;16.15;3.33;;;;;;;3.23;57.20;101155.00;4925257;29;20052;-70
2023/02/26 02:11:03;;;;;;;17.73;3.47;;;;;;;3.00;57.10;101158.00;4923813;29;20467;-68
2023/02/26 02:13:45;;;;;;;15.30;3.40;;;;;;;2.95;57.45;101152.47;4924939;29;20043;-69
2023/02/26 02:16:16;;;;;;;14.40;3.53;;;;;;;2.94;57.47;101164.44;4938655;29;20067;-69
2023/02/26 02:19:27;;;;;;;16.10;3.30;;;;;;;2.97;57.11;101172.09;4942053;29;20145;-70
2023/02/26 02:22:04;;;;;;;15.27;3.88;;;;;;;2.83;57.38;101159.94;4923550;29;20518;-71
2023/02/26 02:24:49;;;;;;;18.85;3.55;;;;;;;2.89;57.22;101158.94;4942059;29;20441;-70
2023/02/26 02:27:18;;;;;;;13.70;3.65;;;;;;;2.47;58.32;101155.06;4939200;29;20444;-68
2023/02/26 02:30:10;;;;;;;16.77;3.58;;;;;;;2.67;57.83;101163.53;4924783;29;20407;-69
2023/02/26 02:32:56;;;;;;;14.25;4.22;;;;;;;2.70;57.68;101163.03;4932954;29;20048;-70
2023/02/26 02:35:45;;;;;;;13.63;3.03;;;;;;;2.67;57.54;101158.09;4907079;29;20056;-69
2023/02/26 02:38:48;;;;;;;12.68;3.20;;;;;;;2.66;57.21;101159.16;4903344;29;20056;-69
2023/02/26 02:41:31;;;;;;;15.50;3.65;;;;;;;2.73;57.04;101173.38;4898393;29;20055;-69
2023/02/26 02:44:00;;;;;;;16.90;3.40;;;;;;;2.51;57.35;101165.19;4923802;29;20052;-67
2023/02/26 02:46:30;;;;;;;21.20;3.53;;;;;;;2.35;57.95;101162.50;4938278;29;20055;-71
2023/02/26 02:49:03;;;;;;;14.95;3.83;;;;;;;2.53;57.49;101163.03;4901684;29;20056;-69
2023/02/26 02:51:35;;;;;;;10.70;3.10;;;;;;;2.46;57.80;101169.75;4931707;29;20047;-70
2023/02/26 02:54:15;;;;;;;13.43;3.20;;;;;;;2.54;57.59;101163.88;4924407;29;20531;-68
2023/02/26 02:56:50;;;;;;;8.93;3.05;;;;;;;2.39;57.98;101172.63;4914561;29;20072;-68
2023/02/26 02:59:43;;;;;;;13.75;3.15;;;;;;;2.36;57.66;101180.44;4902078;29;20060;-69
2023/02/26 03:02:27;;;;;;;15.10;3.72;;;;;;;2.53;57.41;101182.06;4933629;29;20047;-70
2023/02/26 03:04:55;;;;;;;8.70;2.75;;;;;;;2.58;57.32;101184.06;4939716;29;20047;-69
2023/02/26 03:07:23;;;;;;;10.27;2.67;;;;;;;2.48;57.23;101184.72;4938404;29;20047;-69
2023/02/26 03:09:51;;;;;;;13.15;3.22;;;;;;;2.35;57.44;101193.22;4939601;29;20505;-68
2023/02/26 03:12:19;;;;;;;9.60;2.55;;;;;;;2.49;57.39;101199.97;4922560;29;20456;-68
2023/02/26 03:14:48;;;;;;;13.63;3.00;;;;;;;2.47;57.39;101196.69;4939266;29;20044;-68
2023/02/26 03:17:22;;;;;;;12.00;3.22;;;;;;;2.42;57.36;101191.16;4937881;29;20487;-69
2023/02/26 03:20:08;;;;;;;15.20;3.17;;;;;;;2.45;57.47;101187.09;4939301;29;20063;-69
2023/02/26 03:22:51;;;;;;;9.38;2.63;;;;;;;2.43;57.65;101186.53;4906685;29;20067;-70
2023/02/26 03:25:28;;;;;;;11.52;3.15;;;;;;;2.47;57.51;101196.69;4933714;29;20048;-68
2023/02/26 03:28:06;;;;;;;10.45;2.45;;;;;;;2.40;57.93;101197.91;4938575;29;20059;-69
2023/02/26 03:30:57;;;;;;;14.68;3.55;;;;;;;2.40;57.77;101196.03;4937609;29;20058;-69
2023/02/26 03:33:37;;;;;;;16.17;3.08;;;;;;;2.30;57.92;101202.09;4940398;29;20055;-69
2023/02/26 03:36:12;;;;;;;17.75;2.97;;;;;;;2.30;58.20;101204.03;4939016;29;20043;-70
2023/02/26 03:39:02;;;;;;;14.13;3.00;;;;;;;2.25;58.27;101199.31;4923053;29;20063;-69
2023/02/26 03:41:35;;;;;;;13.50;2.78;;;;;;;2.17;58.84;101205.16;4921901;29;20409;-70
2023/02/26 03:44:19;;;;;;;9.48;2.78;;;;;;;2.34;58.36;101204.34;4923605;29;20549;-70
2023/02/26 03:46:51;;;;;;;13.57;3.20;;;;;;;2.30;58.20;101207.53;4928614;29;20076;-70
2023/02/26 03:49:30;;;;;;;13.85;3.10;;;;;;;2.17;58.72;101209.78;4901068;29;20056;-69
2023/02/26 03:52:00;;;;;;;11.50;2.85;;;;;;;2.36;58.18;101204.91;4926653;29;20075;-70
2023/02/26 03:54:54;;;;;;;11.05;2.63;;;;;;;2.20;58.85;101225.56;4908835;29;20052;-69
2023/02/26 03:57:50;;;;;;;14.63;3.22;;;;;;;2.20;59.31;101217.41;4900823;29;20069;-69
2023/02/26 04:00:37;;;;;;;12.65;2.63;;;;;;;2.22;58.74;101224.28;4921350;29;20066;-68
2023/02/26 04:03:20;;;;;;;11.98;2.95;;;;;;;2.11;59.06;101216.19;4938004;29;20052;-69
2023/02/26 04:05:49;;;;;;;17.80;3.08;;;;;;;2.09;59.31;101218.34;4921459;29;20055;-69
2023/02/26 04:08:19;;;;;;;22.48;3.45;;;;;;;1.99;59.07;101239.88;4922259;29;20056;-68
2023/02/26 04:10:54;;;;;;;14.57;3.58;;;;;;;2.10;58.87;101225.41;4937017;29;20048;-69
2023/02/26 04:13:21;;;;;;;15.45;3.55;;;;;;;2.19;58.85;101227.50;4923102;29;20055;-69
2023/02/26 04:15:50;;;;;;;16.40;4.07;;;;;;;2.35;58.23;101231.28;4920874;29;20169;-68
2023/02/26 04:18:18;;;;;;;11.10;2.85;;;;;;;2.19;58.74;101232.91;4939416;29;20051;-70
2023/02/26 04:20:45;;;;;;;14.82;3.80;;;;;;;2.34;58.44;101243.22;4920899;29;20530;-68
2023/02/26 04:23:13;;;;;;;15.70;3.28;;;;;;;2.43;58.03;101244.44;4922472;29;20063;-68
2023/02/26 04:25:41;;;;;;;10.88;3.30;;;;;;;2.37;58.37;101225.59;4920823;29;20060;-68
2023/02/26 04:28:10;;;;;;;7.43;2.47;;;;;;;2.39;58.05;101250.63;4938129;29;20056;-67
2023/02/26 04:30:37;;;;;;;12.45;2.88;;;;;;;2.23;58.56;101244.94;4920251;29;20059;-67
2023/02/26 04:33:06;;;;;;;12.57;3.42;;;;;;;2.31;58.76;101238.28;4922059;29;20375;-67
2023/02/26 04:35:34;;;;;;;8.35;2.60;;;;;;;2.20;58.90;101250.88;4921372;29;20067;-67
2023/02/26 04:38:02;;;;;;;17.27;3.28;;;;;;;2.21;58.79;101241.63;4922057;29;20055;-67
2023/02/26 04:40:30;;;;;;;19.38;3.33;;;;;;;2.13;58.86;101254.78;4936863;29;20066;-67
2023/02/26 04:42:58;;;;;;;16.42;3.28;;;;;;;2.34;58.72;101236.97;4922258;29;20062;-68
2023/02/26 04:45:29;;;;;;;13.82;2.83;;;;;;;2.22;58.74;101254.16;4937233;29;20063;-69
2023/02/26 04:47:57;;;;;;;11.18;3.22;;;;;;;2.09;59.15;101256.38;4921244;29;20052;-69
2023/02/26 04:50:24;;;;;;;14.98;3.08;;;;;;;2.09;58.83;101257.19;4937293;29;20051;-68
2023/02/26 04:52:53;;;;;;;12.43;3.15;;;;;;;2.03;59.58;101263.59;4905486;29;20062;-67
2023/02/26 04:55:21;;;;;;;11.60;3.22;;;;;;;2.18;59.15;101263.88;4937402;29;20051;-67
2023/02/26 04:57:48;;;;;;;12.82;3.58;;;;;;;2.27;58.45;101272.44;4920912;29;20056;-68
2023/02/26 05:00:16;;;;;;;9.75;2.75;;;;;;;2.22;58.92;101267.75;4902406;29;20088;-69
2023/02/26 05:02:43;;;;;;;8.93;2.90;;;;;;;2.34;58.40;101272.31;4921414;29;20503;-68
2023/02/26 05:05:11;;;;;;;12.02;2.88;;;;;;;2.24;58.78;101281.91;4937715;29;20047;-69
2023/02/26 05:07:38;;;;;;;16.55;3.28;;;;;;;2.26;58.83;101273.53;4923195;29;20051;-68
2023/02/26 05:10:06;;;;;;;13.88;3.33;;;;;;;2.23;59.01;101274.81;4926003;29;20055;-68
2023/02/26 05:12:34;;;;;;;13.38;3.38;;;;;;;2.29;58.81;101284.72;4941015;29;20071;-68
2023/02/26 05:15:01;;;;;;;21.05;3.25;;;;;;;2.08;59.36;101287.31;4925292;29;20063;-68
2023/02/26 05:17:29;;;;;;;14.30;3.10;;;;;;;1.95;60.03;101269.41;4924237;29;20060;-68
2023/02/26 05:19:57;;;;;;;11.55;3.00;;;;;;;2.19;59.77;101268.25;4925217;29;20051;-69
2023/02/26 05:22:26;;;;;;;14.10;3.00;;;;;;;2.35;59.11;101276.66;4925052;29;20055;-68
2023/02/26 05:24:55;;;;;;;14.48;3.30;;;;;;;2.25;59.27;101288.16;4941932;29;20092;-68
2023/02/26 05:27:22;;;;;;;13.43;3.47;;;;;;;2.09;59.94;101280.81;4940419;29;20055;-69
2023/02/26 05:29:50;;;;;;;10.85;3.45;;;;;;;2.25;59.40;101277.28;4925973;29;20055;-68
2023/02/26 05:32:17;;;;;;;14.20;3.75;;;;;;;2.36;58.90;101264.69;4924263;29;20055;-68
2023/02/26 05:34:44;;;;;;;15.70;3.10;;;;;;;2.55;59.16;101268.81;4941481;29;20047;-69
2023/02/26 05:37:12;;;;;;;13.88;3.10;;;;;;;2.32;59.11;101266.28;4940011;29;20059;-68
2023/02/26 05:39:42;;;;;;;13.02;3.58;;;;;;;2.34;58.90;101266.88;4942562;29;20056;-69
2023/02/26 05:42:10;;;;;;;11.48;2.97;;;;;;;2.47;58.79;101264.66;4941096;29;20067;-68
2023/02/26 05:44:37;;;;;;;15.35;3.50;;;;;;;2.36;59.00;101276.41;4942408;29;20058;-68
2023/02/26 05:47:05;;;;;;;19.13;3.38;;;;;;;2.25;59.56;101275.41;4939979;29;20051;-69
2023/02/26 05:49:32;;;;;;;18.70;3.65;;;;;;;2.26;59.71;101279.78;4940890;29;20055;-69
2023/02/26 05:52:00;;;;;;;15.50;3.67;;;;;;;2.17;59.98;101273.09;4923132;29;20044;-69
2023/02/26 05:54:27;;;;;;;13.07;2.92;;;;;;;2.08;59.58;101288.16;4940318;29;20055;-68
2023/02/26 05:56:55;;;;;;;8.50;3.17;;;;;;;2.18;59.92;101282.06;4934717;29;20059;-68
2023/02/26 05:59:22;;;;;;;14.57;3.70;;;;;;;1.94;60.73;101277.81;4905987;29;20060;-67
2023/02/26 06:01:50;;;;;;;20.45;4.20;;;;;;;2.26;60.09;101289.81;4917457;29;20047;-69
2023/02/26 06:04:17;;;;;;;17.13;4.07;;;;;;;2.08;60.47;101288.16;4940743;29;20060;-69
2023/02/26 06:06:44;;;;;;;19.55;4.18;;;;;;;2.17;60.08;101283.13;4940353;29;20403;-69
2023/02/26 06:09:12;;;;;;;14.60;3.83;;;;;;;2.30;60.33;101288.28;4924642;29;20060;-69
2023/02/26 06:11:39;;;;;;;15.52;4.25;;;;;;;2.25;60.09;101297.16;4940281;29;20055;-70
2023/02/26 06:14:07;;;;;;;14.00;3.80;;;;;;;2.29;60.28;101298.31;4942042;29;20059;-70
2023/02/26 06:16:34;;;;;;;12.50;4.05;;;;;;;2.23;60.30;101302.00;4938738;29;20059;-70
2023/02/26 06:19:02;;;;;;;12.88;3.67;;;;;;;2.24;60.74;101298.22;4922646;29;20055;-70
2023/02/26 06:21:30;;;;;;;13.18;3.78;;;;;;;2.04;61.56;101299.75;4939987;29;20047;-70
2023/02/26 06:23:57;;;;;;;17.02;4.00;;;;;;;1.90;61.28;101307.34;4941716;29;20048;-69
2023/02/26 06:26:25;;;;;;;16.55;4.82;;;;;;;1.85;62.13;101301.00;4938876;29;20047;-69
2023/02/26 06:28:52;;;;;;;15.20;3.88;;;;;;;1.98;61.94;101303.44;4941581;29;20411;-70
2023/02/26 06:31:20;;;;;;;23.30;4.40;;;;;;;2.12;61.63;101312.94;4938901;29;20055;-69
2023/02/26 06:33:47;;;;;;;19.95;4.18;;;;;;;1.77;62.58;101323.94;4941331;29;20051;-71
2023/02/26 06:36:16;;;;;;;16.70;4.13;;;;;;;1.86;62.99;101327.94;4921870;29;20051;-69
2023/02/26 06:38:44;;;;;;;17.75;4.30;;;;;;;1.91;62.58;101330.75;4923857;29;20066;-68
2023/02/26 06:41:12;;;;;;;13.48;3.65;;;;;;;1.76;62.86;101340.47;4939547;29;20040;-69
2023/02/26 06:43:40;;;;;;;13.98;3.80;;;;;;;1.77;62.88;101342.13;4923778;29;20415;-69
2023/02/26 06:46:07;;;;;;;21.60;4.70;;;;;;;1.85;62.70;101345.28;4921986;29;20511;-69
2023/02/26 06:48:35;;;;;;;15.90;4.30;;;;;;;1.79;63.29;101346.25;4941002;29;20051;-70
2023/02/26 06:51:02;;;;;;;19.15;4.38;;;;;;;1.77;63.25;101353.81;4921918;29;20058;-69
2023/02/26 06:53:30;;;;;;;13.05;3.85;;;;;;;1.86;63.48;101351.53;4941261;29;20051;-71
2023/02/26 06:55:58;;;;;;;16.58;4.57;;;;;;;1.92;63.20;101361.44;4906330;29;20056;-70
2023/02/26 06:58:25;;;;;;;12.98;4.00;;;;;;;1.78;63.72;101371.75;4906367;29;20076;-70
2023/02/26 07:00:53;;;;;;;17.45;4.65;;;;;;;1.77;64.14;101356.53;4925689;29;20494;-69
2023/02/26 07:03:20;;;;;;;15.60;4.82;;;;;;;1.63;64.47;101368.72;4940929;29;20059;-69
2023/02/26 07:05:51;;;;;;;18.83;4.50;;;;;;;1.85;63.87;101372.44;4939362;29;20151;-69
2023/02/26 07:08:18;;;;;;;17.75;4.47;;;;;;;1.95;63.37;101383.50;4922994;29;20059;-69
2023/02/26 07:10:48;;;;;;;19.33;4.80;;;;;;;1.82;64.12;101383.78;4939315;29;20154;-69
2023/02/26 07:13:16;;;;;;;18.27;3.88;;;;;;;1.64;64.81;101380.41;4941043;29;20074;-69
2023/02/26 07:15:43;;;;;;;14.88;4.28;;;;;;;1.66;65.10;101386.41;4939077;29;20051;-69
2023/02/26 07:18:12;;;;;;;13.23;4.20;;;;;;;1.66;65.36;101380.97;4939382;29;20043;-69
2023/02/26 07:20:41;;;;;;;18.40;4.60;;;;;;;1.75;64.52;101385.81;4938021;29;20043;-68
2023/02/26 07:23:09;;;;;;;22.38;4.18;;;;;;;1.55;64.78;101390.78;4923778;29;20052;-69
2023/02/26 07:25:36;;;;;;;16.98;3.90;;;;;;;1.59;64.69;101391.13;4939481;29;20078;-68
2023/02/26 07:28:04;;;;;;;16.77;4.63;;;;;;;1.70;65.19;101395.72;4923313;29;20513;-68
2023/02/26 07:30:31;;;;;;;14.60;4.50;;;;;;;1.63;64.50;101412.16;4937339;29;20059;-69
2023/02/26 07:32:59;;;;;;;19.88;4.03;;;;;;;1.76;65.20;101403.75;4922266;29;20581;-68
2023/02/26 07:35:26;;;;;;;14.25;4.28;;;;;;;1.79;64.83;101406.00;4939624;29;20059;-69
2023/02/26 07:37:54;;;;;;;19.77;4.20;;;;;;;1.91;64.81;101412.22;4939690;29;20077;-69
2023/02/26 07:40:21;;;;;;;15.55;4.63;;;;;;;1.68;65.52;101406.84;4939776;29;20076;-69
2023/02/26 07:42:49;;;;;;;20.00;5.03;;;;;;;1.85;65.32;101412.34;4938565;29;20047;-68
2023/02/26 07:45:21;;;;;;;17.25;4.85;;;;;;;2.01;64.64;101414.31;4931065;29;20063;-68
2023/02/26 07:47:50;;;;;;;18.20;4.65;;;;;;;1.74;65.33;101411.31;4927596;29;20059;-68
2023/02/26 07:50:18;;;;;;;18.00;4.82;;;;;;;1.62;66.20;101418.63;4921879;29;20059;-69
2023/02/26 07:52:46;;;;;;;15.68;5.40;;;;;;;1.83;65.32;101420.72;4939391;29;20062;-69
2023/02/26 07:55:14;;;;;;;17.08;4.70;;;;;;;1.77;65.31;101423.59;4939813;29;20043;-68
2023/02/26 07:57:41;;;;;;;13.05;5.95;;;;;;;1.93;65.13;101428.28;4914517;29;20059;-68
2023/02/26 08:00:09;;;;;;;20.58;5.57;;;;;;;2.04;65.05;101419.28;4922629;29;20419;-69
2023/02/26 08:02:40;;;;;;;14.35;4.10;;;;;;;1.89;64.71;101422.50;4936180;29;20056;-69
2023/02/26 08:05:08;;;;;;;16.63;4.40;;;;;;;2.07;64.36;101419.63;4920868;29;20048;-69
2023/02/26 08:07:36;;;;;;;16.95;4.25;;;;;;;1.98;64.45;101423.78;4920918;29;20063;-69
2023/02/26 08:10:04;;;;;;;15.10;4.00;;;;;;;2.11;64.06;101426.22;4939406;29;20062;-68
2023/02/26 08:12:32;;;;;;;17.17;4.03;;;;;;;2.17;63.55;101433.44;4938118;29;20054;-69
2023/02/26 08:14:59;;;;;;;20.33;5.13;;;;;;;2.26;63.17;101426.56;4925641;29;20067;-68
2023/02/26 08:17:27;;;;;;;13.18;3.95;;;;;;;2.27;63.26;101427.34;4938248;29;20044;-67
2023/02/26 08:19:54;;;;;;;16.00;4.22;;;;;;;2.07;63.70;101433.22;4922390;29;20060;-69
2023/02/26 08:22:22;;;;;;;12.95;4.38;;;;;;;2.18;63.30;101432.34;4938311;29;20058;-68
2023/02/26 08:24:49;;;;;;;13.60;4.55;;;;;;;2.12;63.23;101430.59;4939690;29;20074;-69
2023/02/26 08:27:17;;;;;;;15.73;4.30;;;;;;;2.03;64.36;101450.22;4938028;29;20514;-69
2023/02/26 08:29:45;;;;;;;18.30;4.50;;;;;;;2.08;64.30;101463.91;4906299;29;20070;-69
2023/02/26 08:32:14;;;;;;;20.05;4.88;;;;;;;2.12;63.88;101448.78;4937054;29;20043;-69
2023/02/26 08:34:42;;;;;;;16.85;4.40;;;;;;;2.00;64.23;101451.56;4939600;29;20048;-68
2023/02/26 08:37:10;;;;;;;21.33;4.38;;;;;;;2.07;64.46;101457.69;4938209;29;20060;-70
2023/02/26 08:39:38;;;;;;;14.48;4.22;;;;;;;2.14;64.29;101454.81;4934764;29;20060;-70
2023/02/26 08:42:07;;;;;;;13.88;4.43;;;;;;;1.85;64.55;101458.50;4930806;29;20047;-68
2023/02/26 08:44:34;;;;;;;15.80;4.45;;;;;;;2.11;64.48;101466.19;4920082;29;20052;-68
2023/02/26 08:47:04;;;;;;;15.52;4.47;;;;;;;1.95;64.49;101464.19;4933908;29;20052;-68
2023/02/26 08:49:32;;;;;;;13.38;4.57;;;;;;;2.04;64.29;101458.13;4919672;29;20048;-69
2023/02/26 08:52:01;;;;;;;23.08;4.45;;;;;;;2.04;63.81;101465.47;4908423;29;20052;-68
2023/02/26 08:54:28;;;;;;;14.05;4.18;;;;;;;2.13;62.45;101459.41;4919329;29;20393;-67
2023/02/26 08:56:56;;;;;;;11.40;4.00;;;;;;;2.83;62.34;101472.75;4926851;29;20048;-69
2023/02/26 08:59:27;;;;;;;17.60;3.95;;;;;;;3.28;62.19;101468.09;4918951;29;20487;-70
2023/02/26 09:01:54;;;;;;;13.60;3.92;;;;;;;2.60;59.14;101490.00;4933885;29;20047;-69
2023/02/26 09:04:21;;;;;;;9.63;3.45;;;;;;;2.20;59.90;101487.28;4932497;29;20373;-71
2023/02/26 09:06:49;;;;;;;12.20;3.30;;;;;;;2.42;59.51;101481.22;4924707;29;20074;-69
2023/02/26 09:09:18;;;;;;;22.27;8.63;;;;;;;2.32;59.13;101498.13;4922401;29;20055;-71
2023/02/26 09:11:45;;;;;;;10.63;3.88;;;;;;;2.20;58.63;101489.16;4933206;29;20052;-70
2023/02/26 09:14:13;;;;;;;14.02;3.08;;;;;;;2.42;58.81;101498.34;4938638;29;20062;-73
2023/02/26 09:16:41;;;;;;;16.75;3.25;;;;;;;2.51;58.13;101494.16;4938245;29;20052;-72
2023/02/26 09:19:08;;;;;;;22.05;3.00;;;;;;;2.48;56.63;101500.09;4906820;29;20052;-68
2023/02/26 09:21:36;;;;;;;12.90;2.67;;;;;;;2.38;55.15;101528.97;4919508;29;20055;-69
2023/02/26 09:24:03;;;;;;;14.80;3.17;;;;;;;2.14;55.33;101517.31;4922638;29;20051;-68
2023/02/26 09:26:31;;;;;;;14.30;3.13;;;;;;;2.32;55.03;101503.56;4937615;29;20048;-67
2023/02/26 09:28:58;;;;;;;11.73;2.85;;;;;;;2.42;54.55;101517.38;4939133;29;20055;-69
2023/02/26 09:31:26;;;;;;;13.00;4.03;;;;;;;2.49;52.54;101509.91;4920170;29;20055;-71
2023/02/26 09:33:54;;;;;;;12.57;2.30;;;;;;;2.37;52.03;101520.00;4938263;29;20052;-73
2023/02/26 09:36:22;;;;;;;12.32;3.10;;;;;;;3.75;50.93;101506.75;4936204;29;20051;-71
2023/02/26 09:38:50;;;;;;;11.55;2.83;;;;;;;2.82;50.38;101518.19;4938228;29;20051;-73
2023/02/26 09:41:22;;;;;;;24.98;6.60;;;;;;;2.73;50.97;101514.22;4937893;29;20054;-74
2023/02/26 09:44:12;;;;;;;13.40;3.00;;;;;;;2.90;51.15;101536.00;4922310;29;20414;-73
2023/02/26 09:46:53;;;;;;;;;;;;;;;2.42;50.96;101520.09;4928366;29;20055;-73
2023/02/26 09:50:04;;;;;;;8.32;2.20;;;;;;;2.60;51.13;101521.81;4937894;29;20377;-72
2023/02/26 09:52:40;;;;;;;10.98;3.08;;;;;;;2.62;51.07;101533.25;4898935;29;20499;-73
2023/02/26 09:55:25;;;;;;;9.70;2.40;;;;;;;2.51;50.50;101539.59;4906533;29;20059;-72
2023/02/26 09:58:04;;;;;;;9.38;2.58;;;;;;;2.72;48.94;101537.00;4925201;29;20059;-72
2023/02/26 10:00:36;;;;;;;16.45;2.90;;;;;;;2.97;48.71;101526.63;4907877;29;20056;-70
2023/02/26 10:03:29;;;;;;;12.80;2.65;;;;;;;3.04;48.92;101537.38;4917338;29;20052;-70
2023/02/26 10:06:08;;;;;;;9.95;2.40;;;;;;;2.75;46.88;101555.59;4938312;29;20071;-71
2023/02/26 10:08:45;;;;;;;7.97;2.05;;;;;;;2.73;47.82;101526.97;4942060;29;20036;-73
2023/02/26 10:11:18;;;;;;;11.27;3.10;;;;;;;2.66;48.72;101537.16;4940184;29;20380;-72
2023/02/26 10:13:50;;;;;;;16.35;2.63;;;;;;;2.65;48.74;101540.97;4931611;29;20052;-70
2023/02/26 10:16:27;;;;;;;11.63;2.47;;;;;;;2.75;48.38;101557.47;4901817;29;20056;-71
2023/02/26 10:19:09;;;;;;;10.13;2.45;;;;;;;2.82;47.64;101534.53;4924790;29;20079;-71
2023/02/26 10:21:47;;;;;;;10.13;2.63;;;;;;;2.97;47.43;101556.56;4922804;29;20056;-71
2023/02/26 10:24:26;;;;;;;14.02;2.97;;;;;;;2.86;47.54;101562.06;4925372;29;20056;-71
2023/02/26 10:27:01;;;;;;;8.77;2.50;;;;;;;2.87;47.27;101552.81;4939128;29;20048;-71
2023/02/26 10:29:43;;;;;;;10.43;2.75;;;;;;;3.18;46.78;101563.22;4939499;29;20411;-71
2023/02/26 10:32:13;;;;;;;9.77;2.30;;;;;;;2.99;45.57;101565.31;4937019;29;20059;-70
2023/02/26 10:34:56;;;;;;;9.50;2.33;;;;;;;2.99;45.15;101559.03;4941148;29;20055;-71
2023/02/26 10:37:45;;;;;;;10.75;3.00;;;;;;;3.07;45.43;101556.75;4938562;29;20060;-73
2023/02/26 10:40:33;;;;;;;7.93;1.80;;;;;;;2.90;44.13;101557.78;4941660;29;20063;-71
2023/02/26 10:43:09;;;;;;;5.57;1.70;;;;;;;2.98;44.01;101539.16;4925273;29;20063;-71
2023/02/26 10:46:28;;;;;;;8.25;2.20;;;;;;;3.05;43.60;101566.25;4923991;29;20124;-72
2023/02/26 10:49:31;;;;;;;4.95;1.67;;;;;;;2.98;43.45;101563.66;4887179;29;20061;-72
2023/02/26 10:52:09;;;;;;;6.78;1.80;;;;;;;3.25;42.81;101539.38;4918081;29;20056;-72
2023/02/26 10:54:44;;;;;;;11.18;2.17;;;;;;;3.41;42.23;101546.75;4924970;29;20062;-72
2023/02/26 10:57:26;;;;;;;6.63;2.00;;;;;;;3.25;41.89;101566.59;4907313;29;20071;-72
2023/02/26 10:59:53;;;;;;;5.70;1.75;;;;;;;3.45;42.07;101553.38;4937573;29;20054;-71
2023/02/26 11:02:35;;;;;;;8.13;1.70;;;;;;;3.63;41.53;101563.22;4924070;29;20043;-72
2023/02/26 11:05:05;;;;;;;7.43;1.63;;;;;;;3.50;41.50;101577.97;4904676;29;20056;-71
2023/02/26 11:07:36;;;;;;;7.05;1.98;;;;;;;3.61;41.66;101570.81;4940203;29;20043;-74
2023/02/26 11:10:06;;;;;;;;;;;;;;;3.55;41.73;101569.03;4924159;29;20048;-74
2023/02/26 11:12:33;;;;;;;5.22;1.45;;;;;;;3.41;41.93;101574.81;4919509;29;19931;-73
2023/02/26 11:15:01;;;;;;;6.70;1.90;;;;;;;3.62;41.98;101546.03;4921908;29;20424;-73
2023/02/26 11:17:31;;;;;;;6.18;2.10;;;;;;;3.82;41.82;101559.97;4917240;29;20063;-73
2023/02/26 11:20:04;;;;;;;5.93;1.80;;;;;;;3.91;40.95;101550.31;4888090;29;20060;-71
2023/02/26 11:22:35;;;;;;;7.63;1.77;;;;;;;3.78;40.82;101558.84;4905923;29;20126;-68
2023/02/26 11:25:03;;;;;;;4.00;1.73;;;;;;;3.75;40.64;101591.19;4885523;29;20063;-68
2023/02/26 11:27:36;;;;;;;8.85;1.92;;;;;;;3.76;40.43;101562.88;4890236;29;20052;-69
2023/02/26 11:30:14;;;;;;;6.22;1.80;;;;;;;3.89;40.05;101547.00;4904400;29;20048;-69
2023/02/26 11:32:44;;;;;;;7.75;1.88;;;;;;;3.96;39.04;101579.53;4917465;29;20040;-68
2023/02/26 11:35:13;;;;;;;7.57;1.52;;;;;;;3.75;38.44;101548.41;4921512;29;20078;-69
2023/02/26 11:37:46;;;;;;;9.20;1.60;;;;;;;3.98;38.23;101580.09;4918186;29;20051;-69
2023/02/26 11:40:31;;;;;;;8.68;1.70;;;;;;;3.85;38.37;101581.28;4920773;29;20404;-69
2023/02/26 11:43:02;;;;;;;7.78;1.85;;;;;;;3.70;38.83;101570.13;4895071;29;20076;-68
2023/02/26 11:45:34;;;;;;;6.15;1.63;;;;;;;3.81;39.49;101552.88;4920417;29;20063;-68
2023/02/26 11:48:06;;;;;;;2.78;1.42;;;;;;;3.93;39.20;101564.50;4919922;29;20076;-66
2023/02/26 11:50:43;;;;;;;5.13;1.90;;;;;;;3.94;39.17;101549.81;4904161;29;20077;-68